Time;durP1;ratioP1;P1;durP2;ratioP2;P2;SDS_P1;SDS_P2;PMS_P1;PMS_P2;Temp;Humidity;BMP_temperature;BMP_pressure;BME280_temperature;BME280_humidity;BME280_pressure;Samples;Min_cycle;Max_cycle;Signal;HPM_P1;HPM_P2
2022/12/10 00:01:31;;;;;;;17.70;8.70;;;;;;;-2.91;79.10;99412.81;4938761;28;20039;-72
2022/12/10 00:03:57;;;;;;;18.38;8.30;;;;;;;-2.87;79.13;99409.25;4936726;28;20173;-72
2022/12/10 00:06:26;;;;;;;18.23;8.60;;;;;;;-2.79;79.51;99407.34;4948237;28;20182;-73
2022/12/10 00:08:52;;;;;;;19.90;9.65;;;;;;;-2.74;79.59;99410.72;4954139;28;20058;-72
2022/12/10 00:11:18;;;;;;;18.30;8.93;;;;;;;-2.67;79.96;99399.25;4953254;28;20038;-70
2022/12/10 00:13:46;;;;;;;18.80;7.80;;;;;;;-2.63;79.45;99408.72;4936591;28;20092;-73
2022/12/10 00:16:12;;;;;;;17.08;8.57;;;;;;;-2.64;79.45;99411.38;4936932;28;20038;-72
2022/12/10 00:18:38;;;;;;;15.00;6.93;;;;;;;-2.53;78.96;99406.78;4937385;28;20039;-72
2022/12/10 00:21:05;;;;;;;22.23;8.27;;;;;;;-2.37;78.12;99400.28;4949393;28;20038;-72
2022/12/10 00:23:32;;;;;;;13.13;6.90;;;;;;;-2.48;77.60;99398.84;4934827;28;20031;-72
2022/12/10 00:26:03;;;;;;;19.60;9.40;;;;;;;-2.78;77.92;99398.63;4968523;28;20049;-72
2022/12/10 00:28:27;;;;;;;18.95;8.88;;;;;;;-2.81;78.02;99387.38;4972678;28;20050;-73
2022/12/10 00:30:52;;;;;;;17.52;8.93;;;;;;;-2.83;78.24;99400.47;4945767;28;20087;-72
2022/12/10 00:33:17;;;;;;;17.05;7.80;;;;;;;-2.86;78.40;99392.72;4978255;28;20160;-71
2022/12/10 00:35:41;;;;;;;18.13;9.23;;;;;;;-2.81;78.47;99395.22;4957731;28;20061;-71
2022/12/10 00:38:07;;;;;;;17.77;8.57;;;;;;;-2.77;79.19;99389.03;4960323;28;20069;-72
2022/12/10 00:40:32;;;;;;;18.88;8.98;;;;;;;-2.70;79.67;99390.63;4976941;28;20038;-73
2022/12/10 00:42:57;;;;;;;15.40;7.03;;;;;;;-2.63;79.40;99387.84;4959051;28;20057;-72
2022/12/10 00:45:21;;;;;;;23.10;9.30;;;;;;;-2.65;78.85;99392.25;4970882;28;20042;-71
2022/12/10 00:47:46;;;;;;;33.25;11.20;;;;;;;-2.68;79.05;99383.63;4975334;28;20143;-72
2022/12/10 00:50:11;;;;;;;24.58;11.02;;;;;;;-2.67;79.58;99385.34;4964360;28;20037;-73
2022/12/10 00:52:35;;;;;;;29.17;12.27;;;;;;;-2.63;79.82;99382.63;4945178;28;20550;-72
2022/12/10 00:55:00;;;;;;;20.98;9.75;;;;;;;-2.53;79.81;99367.63;4960224;28;20478;-71
2022/12/10 00:57:24;;;;;;;18.67;9.45;;;;;;;-2.45;80.12;99344.81;4979277;28;20042;-72
2022/12/10 00:59:49;;;;;;;24.75;11.60;;;;;;;-2.40;79.96;99353.41;4979029;28;20040;-72
2022/12/10 01:02:14;;;;;;;19.15;10.35;;;;;;;-2.36;79.94;99354.16;4980442;28;20067;-72
2022/12/10 01:04:39;;;;;;;22.35;9.45;;;;;;;-2.29;80.15;99346.16;4998381;28;20102;-71
2022/12/10 01:07:06;;;;;;;16.25;8.80;;;;;;;-2.24;79.85;99340.81;4964171;28;20127;-71
2022/12/10 01:09:31;;;;;;;21.35;9.93;;;;;;;-2.21;79.46;99340.75;4964576;28;20049;-72
2022/12/10 01:12:01;;;;;;;22.60;9.80;;;;;;;-2.14;79.99;99337.06;4953292;28;20051;-71
2022/12/10 01:14:29;;;;;;;20.15;9.32;;;;;;;-2.12;79.72;99340.50;4979060;28;20030;-72
2022/12/10 01:16:56;;;;;;;17.90;8.55;;;;;;;-2.10;79.49;99325.66;4977719;28;20045;-73
2022/12/10 01:19:20;;;;;;;21.33;8.48;;;;;;;-2.08;79.62;99339.53;4979801;28;20087;-72
2022/12/10 01:21:45;;;;;;;23.00;9.32;;;;;;;-2.07;79.27;99337.78;4996197;28;20045;-72
2022/12/10 01:24:10;;;;;;;26.77;9.45;;;;;;;-2.04;79.25;99342.94;4977110;28;20046;-72
2022/12/10 01:26:35;;;;;;;24.23;8.93;;;;;;;-2.02;79.42;99355.03;4953190;28;20116;-71
2022/12/10 01:29:01;;;;;;;20.17;9.02;;;;;;;-2.00;79.24;99334.97;4963258;28;20037;-71
2022/12/10 01:31:31;;;;;;;22.58;10.70;;;;;;;-1.96;78.98;99328.78;4963435;28;20060;-73
2022/12/10 01:33:57;;;;;;;17.92;10.52;;;;;;;-1.95;78.92;99321.81;4957223;28;20088;-72
2022/12/10 01:36:31;;;;;;;21.58;10.70;;;;;;;-1.91;78.74;99331.25;4943156;28;20042;-72
2022/12/10 01:38:57;;;;;;;20.25;9.05;;;;;;;-1.91;78.87;99332.13;4974503;28;20400;-72
2022/12/10 01:41:25;;;;;;;22.40;9.30;;;;;;;-1.89;78.77;99348.63;4976433;28;20041;-72
2022/12/10 01:44:00;;;;;;;23.95;10.85;;;;;;;-1.82;78.68;99336.25;4961902;28;20040;-71
2022/12/10 01:46:31;;;;;;;19.23;9.35;;;;;;;-1.81;78.59;99332.75;4984980;28;20042;-74
2022/12/10 01:48:57;;;;;;;22.50;9.50;;;;;;;-1.79;78.43;99343.13;4983150;28;20065;-71
2022/12/10 01:51:24;;;;;;;22.70;10.52;;;;;;;-1.79;78.48;99337.91;4963560;28;20042;-72
2022/12/10 01:53:48;;;;;;;23.52;9.48;;;;;;;-1.79;78.25;99341.38;4980089;28;20514;-72
2022/12/10 01:56:16;;;;;;;19.35;9.95;;;;;;;-1.77;78.29;99344.81;4962513;28;20771;-70
2022/12/10 01:58:41;;;;;;;16.33;8.43;;;;;;;-1.74;78.15;99344.75;4947903;28;20104;-71
2022/12/10 02:01:11;;;;;;;18.92;9.25;;;;;;;-1.68;78.29;99351.56;4962179;28;20050;-70
2022/12/10 02:03:41;;;;;;;20.45;8.90;;;;;;;-1.64;78.46;99343.59;4943812;28;20064;-72
2022/12/10 02:06:39;;;;;;;22.60;8.77;;;;;;;-1.58;78.34;99346.03;4994756;28;20056;-73
2022/12/10 02:09:32;;;;;;;17.60;8.93;;;;;;;-1.56;77.96;99344.25;4998150;28;20045;-77
2022/12/10 02:12:12;;;;;;;21.75;9.05;;;;;;;-1.52;77.84;99351.13;4987736;28;20141;-71
2022/12/10 02:14:40;;;;;;;15.57;8.02;;;;;;;-1.54;77.66;99346.81;4993870;28;20045;-73
2022/12/10 02:17:15;;;;;;;20.38;8.73;;;;;;;-1.50;77.54;99343.22;4962044;28;20054;-72
2022/12/10 02:20:07;;;;;;;18.23;8.77;;;;;;;-1.50;77.26;99344.09;4954767;28;20573;-71
2022/12/10 02:22:38;;;;;;;16.60;8.95;;;;;;;-1.53;77.27;99333.72;4949868;28;20555;-72
2022/12/10 02:25:06;;;;;;;16.45;9.05;;;;;;;-1.55;77.70;99329.41;4996677;28;20041;-70
2022/12/10 02:28:10;;;;;;;17.85;8.85;;;;;;;-1.48;77.57;99326.63;4962647;28;20423;-71
2022/12/10 02:30:38;;;;;;;15.93;7.60;;;;;;;-1.54;77.32;99336.38;4897734;29;20070;-71
2022/12/10 02:33:06;;;;;;;15.10;7.70;;;;;;;-1.57;77.17;99329.47;4897895;29;20561;-71
2022/12/10 02:35:33;;;;;;;24.20;10.23;;;;;;;-1.57;77.59;99329.47;4897092;29;20096;-72
2022/12/10 02:38:09;;;;;;;21.48;10.00;;;;;;;-1.56;77.68;99320.72;4866061;29;20220;-70
2022/12/10 02:40:37;;;;;;;21.27;8.95;;;;;;;-1.58;77.59;99327.75;4881473;29;20047;-70
2022/12/10 02:43:07;;;;;;;19.85;9.43;;;;;;;-1.59;77.43;99320.81;4881348;29;20071;-71
2022/12/10 02:45:33;;;;;;;21.77;10.52;;;;;;;-1.59;77.76;99333.03;4897124;29;20119;-70
2022/12/10 02:48:01;;;;;;;22.42;9.35;;;;;;;-1.58;77.73;99330.34;4915981;29;20051;-70
2022/12/10 02:50:33;;;;;;;22.98;11.93;;;;;;;-1.56;77.84;99328.56;4885187;29;20054;-69
2022/12/10 02:52:58;;;;;;;23.33;10.45;;;;;;;-1.56;77.89;99312.88;4890293;29;20067;-64
2022/12/10 02:55:23;;;;;;;18.13;8.82;;;;;;;-1.53;77.67;99317.16;4920400;29;20042;-64
2022/12/10 02:58:20;;;;;;;21.85;11.10;;;;;;;-1.46;77.72;99314.31;4887274;29;20038;-63
2022/12/10 03:01:03;;;;;;;17.42;9.35;;;;;;;-1.44;77.66;99303.84;4916481;29;20363;-65
2022/12/10 03:03:48;;;;;;;22.25;10.77;;;;;;;-1.42;77.76;99307.28;4916532;29;20043;-64
2022/12/10 03:06:21;;;;;;;26.60;12.18;;;;;;;-1.41;77.65;99306.38;4916701;28;20053;-64
2022/12/10 03:09:01;;;;;;;22.45;11.57;;;;;;;-1.35;77.19;99305.31;4995798;28;20053;-65
2022/12/10 03:11:27;;;;;;;24.65;12.57;;;;;;;-1.37;77.35;99305.41;4974453;28;20128;-65
2022/12/10 03:14:18;;;;;;;18.48;10.38;;;;;;;-1.37;77.24;99321.09;4965176;28;20116;-65
2022/12/10 03:16:49;;;;;;;32.40;14.23;;;;;;;-1.41;77.35;99311.59;4990046;28;20523;-65
2022/12/10 03:19:18;;;;;;;30.08;13.50;;;;;;;-1.47;77.21;99312.63;4995927;28;20041;-64
2022/12/10 03:21:46;;;;;;;36.92;12.38;;;;;;;-1.52;77.42;99313.66;4978379;28;20049;-65
2022/12/10 03:24:11;;;;;;;27.75;13.30;;;;;;;-1.53;77.58;99314.56;4977859;28;20048;-65
2022/12/10 03:26:39;;;;;;;21.15;10.85;;;;;;;-1.49;77.72;99317.06;4994343;28;20041;-64
2022/12/10 03:29:12;;;;;;;32.25;13.73;;;;;;;-1.42;77.83;99314.25;4994475;28;20041;-64
2022/12/10 03:31:39;;;;;;;32.10;15.50;;;;;;;-1.41;77.60;99316.81;4989313;28;20106;-63
2022/12/10 03:34:05;;;;;;;25.90;13.00;;;;;;;-1.39;77.53;99315.03;4977443;28;20042;-64
2022/12/10 03:36:31;;;;;;;36.65;14.88;;;;;;;-1.40;77.45;99313.31;4986237;28;20135;-66
2022/12/10 03:38:56;;;;;;;34.35;14.25;;;;;;;-1.37;77.70;99321.09;4995801;28;20044;-65
2022/12/10 03:41:21;;;;;;;37.50;13.60;;;;;;;-1.34;77.71;99307.91;4995446;28;20049;-66
2022/12/10 03:43:53;;;;;;;27.27;12.45;;;;;;;-1.28;77.49;99310.34;4977727;28;20048;-65
2022/12/10 03:46:18;;;;;;;24.55;12.57;;;;;;;-1.25;77.37;99310.28;4995604;28;20130;-66
2022/12/10 03:48:43;;;;;;;33.60;13.45;;;;;;;-1.23;77.38;99311.06;4965774;28;20081;-65
2022/12/10 03:51:07;;;;;;;24.27;12.65;;;;;;;-1.18;77.25;99311.78;4993279;28;20562;-65
2022/12/10 03:53:32;;;;;;;30.25;14.50;;;;;;;-1.19;77.33;99317.91;4977383;28;20045;-64
2022/12/10 03:55:57;;;;;;;45.15;15.07;;;;;;;-1.20;77.15;99315.34;4993998;28;20120;-63
2022/12/10 03:58:21;;;;;;;33.10;14.10;;;;;;;-1.19;77.06;99299.63;4977664;28;20103;-64
2022/12/10 04:00:46;;;;;;;24.10;11.75;;;;;;;-1.11;76.69;99308.09;4977751;28;20048;-65
2022/12/10 04:03:10;;;;;;;32.67;14.48;;;;;;;-1.10;76.34;99307.19;4958497;28;20038;-63
2022/12/10 04:05:36;;;;;;;38.00;15.45;;;;;;;-1.19;76.66;99309.22;4977442;28;20057;-63
2022/12/10 04:08:01;;;;;;;29.90;13.90;;;;;;;-1.22;76.39;99307.53;4977180;28;20037;-63
2022/12/10 04:10:26;;;;;;;32.60;15.20;;;;;;;-1.21;76.73;99311.00;4960941;28;20048;-62
2022/12/10 04:16:26;;;;;;;33.92;13.52;;;;;;;-1.06;76.55;99304.47;4993790;28;20049;-63
2022/12/10 04:18:21;;;;;;;27.58;14.00;;;;;;;-1.23;76.51;99315.44;4977356;28;20044;-63
2022/12/10 04:28:55;;;;;;;38.95;16.67;;;;;;;-1.35;76.62;99323.63;4979456;28;20512;-63
2022/12/10 04:31:20;;;;;;;32.45;16.08;;;;;;;-1.36;76.89;99335.88;4998874;28;20392;-64
2022/12/10 04:33:45;;;;;;;31.83;14.23;;;;;;;-1.31;77.02;99323.50;4998973;28;20127;-65
2022/12/10 04:36:09;;;;;;;35.67;17.27;;;;;;;-1.29;77.15;99316.47;4984688;28;20151;-64
2022/12/10 04:38:34;;;;;;;30.40;14.43;;;;;;;-1.27;77.04;99305.97;4998711;28;20519;-64
2022/12/10 04:40:58;;;;;;;29.00;13.77;;;;;;;-1.27;76.70;99300.75;4962707;28;20046;-64
2022/12/10 04:43:23;;;;;;;33.13;15.30;;;;;;;-1.18;76.88;99313.56;4989192;28;20100;-64
2022/12/10 04:45:48;;;;;;;35.10;16.08;;;;;;;-1.15;76.99;99306.47;4980585;28;20402;-64
2022/12/10 04:48:12;;;;;;;36.10;15.73;;;;;;;-1.16;76.72;99302.16;4998472;28;20064;-66
2022/12/10 04:50:37;;;;;;;34.30;16.60;;;;;;;-1.18;76.56;99296.09;4968125;28;20050;-64
2022/12/10 04:53:02;;;;;;;26.92;13.70;;;;;;;-1.13;76.49;99298.59;4998514;28;20044;-64
2022/12/10 04:55:26;;;;;;;42.42;16.95;;;;;;;-1.08;76.49;99304.53;4980994;28;20037;-63
2022/12/10 04:57:51;;;;;;;33.10;15.05;;;;;;;-1.19;76.51;99302.22;4980659;28;20063;-63
2022/12/10 05:00:16;;;;;;;33.60;16.30;;;;;;;-1.22;76.67;99297.09;4971467;28;20041;-63
2022/12/10 05:02:40;;;;;;;30.88;14.48;;;;;;;-1.21;76.61;99293.56;4975949;28;20072;-65
2022/12/10 05:05:05;;;;;;;28.25;14.32;;;;;;;-1.20;76.67;99290.06;4998307;28;20127;-64
2022/12/10 05:07:30;;;;;;;31.20;14.93;;;;;;;-1.12;76.67;99308.13;4997363;28;20067;-63
2022/12/10 05:09:54;;;;;;;42.45;15.57;;;;;;;-1.10;76.58;99295.88;4980598;28;20041;-64
2022/12/10 05:12:19;;;;;;;36.28;16.13;;;;;;;-1.06;75.98;99292.25;4996944;28;20049;-64
2022/12/10 05:14:44;;;;;;;37.45;16.20;;;;;;;-1.16;76.12;99296.06;4944601;28;20545;-64
2022/12/10 05:17:08;;;;;;;26.73;13.88;;;;;;;-1.23;76.52;99297.13;4959148;28;20042;-64
2022/12/10 05:19:33;;;;;;;33.88;15.80;;;;;;;-1.23;76.61;99304.97;4988459;28;20514;-64
2022/12/10 05:24:41;;;;;;;37.70;17.27;;;;;;;-1.16;77.12;99307.38;4998304;28;20049;-72
2022/12/10 05:27:05;;;;;;;33.38;14.23;;;;;;;-1.12;76.91;99295.91;4984924;28;20041;-71
2022/12/10 05:29:32;;;;;;;27.95;13.98;;;;;;;-1.06;76.97;99307.97;4964985;28;20595;-71
2022/12/10 05:31:56;;;;;;;26.15;14.32;;;;;;;-1.00;76.65;99302.53;4997975;28;20125;-73
2022/12/10 05:34:21;;;;;;;27.58;14.50;;;;;;;-1.00;76.40;99307.75;4997880;28;20068;-71
2022/12/10 05:36:46;;;;;;;27.27;14.05;;;;;;;-1.02;76.31;99313.97;4998256;28;20053;-71
2022/12/10 05:39:11;;;;;;;26.13;12.70;;;;;;;-1.03;76.45;99307.03;4976235;28;20044;-71
2022/12/10 05:41:38;;;;;;;29.83;14.75;;;;;;;-1.00;76.49;99322.59;4953024;28;20045;-71
2022/12/10 05:44:02;;;;;;;26.40;13.43;;;;;;;-0.97;76.29;99306.81;4997683;28;20129;-71
2022/12/10 05:46:30;;;;;;;26.10;12.18;;;;;;;-0.89;76.46;99315.28;4980291;28;20140;-70
2022/12/10 05:48:55;;;;;;;22.00;12.45;;;;;;;-0.94;76.34;99309.34;4963799;28;20049;-70
2022/12/10 05:51:23;;;;;;;30.85;14.88;;;;;;;-0.92;76.24;99300.56;4963608;28;20041;-69
2022/12/10 05:53:48;;;;;;;30.35;14.82;;;;;;;-0.91;76.16;99290.94;4954536;28;20069;-69
2022/12/10 05:56:21;;;;;;;24.52;12.32;;;;;;;-0.94;75.74;99297.13;4961831;28;20064;-70
2022/12/10 05:58:48;;;;;;;33.33;12.90;;;;;;;-0.99;75.88;99288.53;4960915;28;20061;-70
2022/12/10 06:01:15;;;;;;;33.47;13.10;;;;;;;-0.82;75.43;99288.91;4995079;28;20045;-71
2022/12/10 06:03:40;;;;;;;26.85;12.93;;;;;;;-0.84;74.98;99295.06;4979946;28;20056;-69
2022/12/10 06:06:05;;;;;;;29.77;14.32;;;;;;;-0.96;74.86;99288.47;4995952;28;20057;-70
2022/12/10 06:08:31;;;;;;;25.38;12.57;;;;;;;-1.10;75.34;99303.72;4972796;28;20072;-70
2022/12/10 06:10:57;;;;;;;30.77;14.25;;;;;;;-1.18;75.75;99298.72;4973084;28;20420;-71
2022/12/10 06:13:22;;;;;;;27.88;13.30;;;;;;;-1.20;75.95;99297.91;4995809;28;20041;-71
2022/12/10 06:15:47;;;;;;;29.75;14.52;;;;;;;-1.20;76.31;99317.97;4997451;28;20131;-71
2022/12/10 06:18:12;;;;;;;33.75;13.82;;;;;;;-1.15;76.40;99285.56;4963275;28;20032;-72
2022/12/10 06:20:39;;;;;;;29.70;15.07;;;;;;;-1.12;76.30;99293.28;4997292;28;20045;-70
2022/12/10 06:23:05;;;;;;;29.13;12.75;;;;;;;-1.15;76.32;99290.78;4976782;28;20049;-72
2022/12/10 06:25:30;;;;;;;26.52;14.02;;;;;;;-1.11;76.11;99284.53;4994873;28;20045;-69
2022/12/10 06:27:54;;;;;;;27.17;13.57;;;;;;;-1.10;76.74;99281.03;4999897;28;20037;-70
2022/12/10 06:30:19;;;;;;;25.63;13.38;;;;;;;-1.07;77.36;99282.69;5001151;28;20135;-70
2022/12/10 06:32:44;;;;;;;24.48;12.68;;;;;;;-0.99;76.71;99282.44;4983134;28;20063;-71
2022/12/10 06:35:10;;;;;;;28.27;14.45;;;;;;;-0.97;77.02;99288.50;5001404;28;20152;-71
2022/12/10 06:37:34;;;;;;;29.95;14.82;;;;;;;-0.93;76.69;99284.91;4983846;28;20044;-71
2022/12/10 06:39:59;;;;;;;25.45;14.07;;;;;;;-0.88;76.64;99283.84;5001370;28;20544;-71
2022/12/10 06:42:24;;;;;;;29.33;14.45;;;;;;;-0.82;76.88;99280.19;4982178;28;20033;-71
2022/12/10 06:44:49;;;;;;;33.10;14.57;;;;;;;-0.76;76.50;99286.06;4972635;28;20041;-72
2022/12/10 06:47:14;;;;;;;30.38;15.13;;;;;;;-0.76;76.41;99285.22;4993297;28;20041;-70
2022/12/10 06:49:39;;;;;;;30.42;14.27;;;;;;;-0.73;76.80;99283.38;4996816;28;20594;-71
2022/12/10 06:52:04;;;;;;;32.35;14.10;;;;;;;-0.68;77.10;99287.63;4967620;28;20038;-72
2022/12/10 06:54:29;;;;;;;34.20;15.73;;;;;;;-0.62;76.80;99283.03;4959900;28;20053;-71
2022/12/10 06:56:54;;;;;;;43.67;17.30;;;;;;;-0.56;76.46;99293.28;4966157;28;20037;-71
2022/12/10 06:59:20;;;;;;;33.17;16.35;;;;;;;-0.58;76.09;99278.56;4992722;28;20041;-71
2022/12/10 07:01:44;;;;;;;37.50;16.92;;;;;;;-0.58;75.99;99287.28;4997401;28;20480;-71
2022/12/10 07:04:09;;;;;;;39.25;18.77;;;;;;;-0.56;76.46;99281.97;4959971;28;20504;-71
2022/12/10 07:06:34;;;;;;;32.28;16.50;;;;;;;-0.43;76.59;99273.66;4996170;28;20057;-72
2022/12/10 07:08:59;;;;;;;41.58;19.23;;;;;;;-0.46;76.02;99272.94;4972096;28;20120;-72
2022/12/10 07:11:24;;;;;;;45.28;19.10;;;;;;;-0.50;75.89;99272.16;4997001;28;20037;-71
2022/12/10 07:13:51;;;;;;;43.70;19.63;;;;;;;-0.49;75.78;99273.03;4999495;28;20045;-72
2022/12/10 07:16:25;;;;;;;46.03;19.95;;;;;;;-0.49;75.84;99275.63;4997980;28;20037;-70
2022/12/10 07:18:50;;;;;;;36.50;18.67;;;;;;;-0.50;75.87;99280.00;5002298;28;20507;-71
2022/12/10 07:21:28;;;;;;;40.17;19.50;;;;;;;-0.57;76.02;99281.13;4982725;28;20045;-72
2022/12/10 07:23:57;;;;;;;44.08;19.27;;;;;;;-0.53;76.21;99279.25;4997011;28;20091;-72
2022/12/10 07:26:22;;;;;;;38.38;16.52;;;;;;;-0.61;76.25;99295.22;4996541;28;20484;-72
2022/12/10 07:28:47;;;;;;;41.30;18.92;;;;;;;-0.57;76.42;99291.59;4961051;28;20536;-72
2022/12/10 07:31:13;;;;;;;36.83;18.48;;;;;;;-0.53;77.12;99287.97;4995428;28;20056;-71
2022/12/10 07:33:39;;;;;;;44.15;20.10;;;;;;;-0.47;77.10;99292.16;4996745;28;20823;-71
2022/12/10 07:36:09;;;;;;;37.60;17.80;;;;;;;-0.39;77.12;99287.50;4999724;28;20041;-72
2022/12/10 07:38:35;;;;;;;37.88;18.08;;;;;;;-0.34;77.44;99280.38;4981956;28;20037;-72
2022/12/10 07:41:08;;;;;;;38.10;18.42;;;;;;;-0.24;77.38;99278.31;4982164;28;20416;-71
2022/12/10 07:43:34;;;;;;;33.70;17.05;;;;;;;-0.21;76.80;99276.41;4981269;28;20439;-71
2022/12/10 07:46:05;;;;;;;36.13;15.43;;;;;;;-0.04;76.50;99281.09;4978421;28;20049;-73
2022/12/10 07:48:31;;;;;;;43.75;17.80;;;;;;;-0.06;75.78;99282.91;4989668;28;20115;-72
2022/12/10 07:50:57;;;;;;;42.75;19.75;;;;;;;-0.17;76.05;99277.19;4963660;28;20041;-65
2022/12/10 07:53:22;;;;;;;50.80;19.23;;;;;;;-0.27;75.90;99267.91;4997458;28;20045;-65
2022/12/10 07:55:47;;;;;;;35.75;19.40;;;;;;;-0.30;76.38;99268.00;4999626;28;20053;-64
2022/12/10 07:58:12;;;;;;;50.58;20.20;;;;;;;-0.26;77.04;99267.88;4999692;28;20045;-65
2022/12/10 08:00:36;;;;;;;45.35;18.63;;;;;;;-0.17;77.01;99277.19;4980641;28;20049;-64
2022/12/10 08:03:01;;;;;;;41.15;19.23;;;;;;;-0.05;77.22;99271.53;4996138;28;20037;-65
2022/12/10 08:05:25;;;;;;;38.45;18.52;;;;;;;-0.04;76.94;99273.25;4995994;28;20144;-65
2022/12/10 08:07:50;;;;;;;45.97;20.27;;;;;;;-0.01;76.71;99267.91;4978907;28;20045;-65
2022/12/10 08:10:15;;;;;;;44.38;21.02;;;;;;;0.06;76.60;99277.25;4979848;28;20033;-65
2022/12/10 08:12:39;;;;;;;41.50;19.55;;;;;;;0.12;76.44;99274.41;4979076;28;20047;-65
2022/12/10 08:15:05;;;;;;;50.33;21.48;;;;;;;0.17;76.31;99275.09;4996344;28;20053;-65
2022/12/10 08:17:30;;;;;;;44.38;19.60;;;;;;;0.15;76.26;99271.69;4997087;28;20087;-65
2022/12/10 08:19:55;;;;;;;44.47;22.00;;;;;;;0.18;76.20;99268.09;4967272;28;20061;-65
2022/12/10 08:22:20;;;;;;;44.33;19.17;;;;;;;0.21;76.21;99276.72;4979604;28;20053;-65
2022/12/10 08:24:45;;;;;;;45.83;20.42;;;;;;;0.24;76.46;99276.59;4997023;28;20103;-64
2022/12/10 08:27:10;;;;;;;47.75;21.40;;;;;;;0.26;76.36;99272.16;4980741;28;20054;-65
2022/12/10 08:29:35;;;;;;;43.35;20.85;;;;;;;0.29;75.95;99264.19;4964755;28;20034;-65
2022/12/10 08:32:00;;;;;;;45.75;22.27;;;;;;;0.28;75.97;99265.09;4996089;28;20056;-66
2022/12/10 08:34:25;;;;;;;38.67;20.45;;;;;;;0.30;75.75;99263.28;4997085;28;20037;-64
2022/12/10 08:36:50;;;;;;;46.88;19.23;;;;;;;0.29;75.83;99258.94;4995729;28;20492;-65
2022/12/10 08:39:16;;;;;;;45.90;20.25;;;;;;;0.28;75.52;99259.00;4990400;28;20507;-66
2022/12/10 08:41:42;;;;;;;53.58;21.30;;;;;;;0.26;75.45;99259.03;4993283;28;20049;-64
2022/12/10 08:44:07;;;;;;;43.38;20.95;;;;;;;0.25;75.36;99246.84;4976719;28;20456;-65
2022/12/10 08:46:32;;;;;;;53.80;22.92;;;;;;;0.24;75.51;99260.84;4970850;28;20373;-65
2022/12/10 08:48:57;;;;;;;46.13;20.38;;;;;;;0.22;75.54;99257.47;4990911;28;20447;-71
2022/12/10 08:51:22;;;;;;;43.35;21.10;;;;;;;0.21;75.59;99255.75;4995507;28;20041;-71
2022/12/10 08:53:47;;;;;;;47.83;21.38;;;;;;;0.19;75.49;99257.56;4962927;28;20049;-72
2022/12/10 08:56:12;;;;;;;44.97;22.08;;;;;;;0.19;75.71;99251.47;4996585;28;20487;-77
2022/12/10 08:58:37;;;;;;;50.90;22.23;;;;;;;0.16;75.90;99247.19;4978655;28;20638;-72
2022/12/10 09:01:07;;;;;;;41.53;19.65;;;;;;;0.18;75.69;99255.00;5004669;28;20064;-71
2022/12/10 09:03:33;;;;;;;43.08;22.55;;;;;;;0.16;75.62;99246.31;4989753;28;20052;-73
2022/12/10 09:06:02;;;;;;;48.35;22.75;;;;;;;0.17;75.68;99253.28;5002551;28;20117;-74
2022/12/10 09:08:27;;;;;;;49.80;24.08;;;;;;;0.15;75.76;99253.31;4981999;28;20095;-71
2022/12/10 09:10:52;;;;;;;51.40;24.23;;;;;;;0.16;76.08;99259.44;4978371;28;20042;-72
2022/12/10 09:13:17;;;;;;;49.72;21.08;;;;;;;0.19;75.70;99256.72;4982578;28;20144;-73
2022/12/10 09:15:52;;;;;;;45.97;21.63;;;;;;;0.25;76.01;99262.56;4989625;28;20065;-71
2022/12/10 09:18:17;;;;;;;50.58;22.33;;;;;;;0.23;75.85;99264.38;5005689;28;20106;-66
2022/12/10 09:20:41;;;;;;;53.13;23.08;;;;;;;0.24;75.94;99255.63;4970973;28;20097;-65
2022/12/10 09:23:08;;;;;;;51.85;24.95;;;;;;;0.25;75.82;99259.09;4985660;28;20053;-66
2022/12/10 09:25:33;;;;;;;53.67;24.35;;;;;;;0.24;75.73;99260.84;4982983;28;20044;-65
2022/12/10 09:27:59;;;;;;;51.30;22.70;;;;;;;0.25;75.66;99264.34;4981991;28;20072;-66
2022/12/10 09:30:23;;;;;;;55.47;23.02;;;;;;;0.24;75.86;99254.75;4981462;28;20079;-65
2022/12/10 09:32:48;;;;;;;69.53;26.20;;;;;;;0.22;75.96;99252.22;5001826;28;20076;-65
2022/12/10 09:35:13;;;;;;;49.15;21.25;;;;;;;0.22;75.67;99248.75;5005133;28;20551;-65
2022/12/10 09:37:38;;;;;;;53.05;22.88;;;;;;;0.21;75.64;99252.28;4984017;28;20042;-65
2022/12/10 09:40:03;;;;;;;60.22;23.17;;;;;;;0.20;76.02;99243.56;4998733;28;20044;-65
2022/12/10 09:42:36;;;;;;;52.88;23.42;;;;;;;0.24;76.04;99250.38;5015479;28;20072;-65
2022/12/10 09:45:26;;;;;;;68.95;23.58;;;;;;;0.22;76.08;99238.25;5007443;28;20044;-66
2022/12/10 09:48:13;;;;;;;55.58;22.02;;;;;;;0.20;75.85;99238.31;4980783;28;20148;-66
2022/12/10 09:50:55;;;;;;;54.17;22.83;;;;;;;0.24;76.16;99247.75;4961212;28;20887;-65
2022/12/10 09:53:21;;;;;;;54.35;24.60;;;;;;;0.22;76.08;99241.72;4959846;28;20548;-65
2022/12/10 09:55:47;;;;;;;52.72;23.05;;;;;;;0.26;75.98;99240.69;4960193;28;20631;-66
2022/12/10 09:58:18;;;;;;;52.10;23.70;;;;;;;0.21;75.86;99237.41;4960620;28;20042;-65
2022/12/10 10:00:46;;;;;;;61.95;25.27;;;;;;;0.18;76.04;99244.50;4961088;28;20042;-66
2022/12/10 10:03:14;;;;;;;51.67;24.85;;;;;;;0.18;76.15;99237.50;4942958;28;20046;-64
2022/12/10 10:05:43;;;;;;;52.10;25.80;;;;;;;0.22;76.53;99227.78;4958792;28;20062;-68
2022/12/10 10:08:23;;;;;;;58.78;26.25;;;;;;;0.23;76.51;99226.81;4959718;28;20094;-65
2022/12/10 10:10:49;;;;;;;64.97;26.80;;;;;;;0.18;76.18;99224.41;4943258;28;20072;-65
2022/12/10 10:13:30;;;;;;;59.88;26.88;;;;;;;0.19;76.40;99231.34;4959574;28;20046;-65
2022/12/10 10:15:54;;;;;;;62.35;27.60;;;;;;;0.17;76.17;99232.31;4958375;28;20077;-66
2022/12/10 10:18:40;;;;;;;69.57;27.38;;;;;;;0.20;76.15;99227.81;4959645;28;20074;-67
2022/12/10 10:21:26;;;;;;;65.53;28.08;;;;;;;0.20;76.91;99226.97;4958709;28;20049;-65
2022/12/10 10:23:51;;;;;;;63.60;24.85;;;;;;;0.23;76.51;99226.81;4958935;28;20066;-65
2022/12/10 10:26:17;;;;;;;77.10;29.55;;;;;;;0.29;76.01;99217.00;4959535;28;20540;-64
2022/12/10 10:28:43;;;;;;;77.32;29.75;;;;;;;0.17;75.95;99211.34;4997343;28;20089;-65
2022/12/10 10:31:18;;;;;;;69.20;26.77;;;;;;;0.05;76.62;99207.41;5003085;28;20133;-65
2022/12/10 10:33:58;;;;;;;51.22;24.05;;;;;;;0.05;77.17;99209.16;5002067;28;20045;-64
2022/12/10 10:36:29;;;;;;;66.65;25.10;;;;;;;0.01;76.79;99213.66;5001057;28;20048;-65
2022/12/10 10:38:55;;;;;;;73.40;26.05;;;;;;;0.02;77.05;99211.88;5007539;28;20132;-64
2022/12/10 10:41:20;;;;;;;61.08;26.13;;;;;;;0.03;77.28;99200.50;5001290;28;20041;-65
2022/12/10 10:43:46;;;;;;;60.65;27.05;;;;;;;-0.01;77.25;99203.25;5001666;28;20076;-67
2022/12/10 10:46:20;;;;;;;72.90;27.42;;;;;;;0.02;77.49;99194.41;4987009;28;20045;-65
2022/12/10 10:48:46;;;;;;;68.97;26.33;;;;;;;0.03;77.33;99193.50;4995840;28;20081;-66
2022/12/10 10:51:11;;;;;;;74.45;28.55;;;;;;;0.12;77.22;99187.06;5000741;28;20045;-66
2022/12/10 10:53:43;;;;;;;81.45;32.67;;;;;;;0.05;77.02;99193.44;5001046;28;20476;-66
2022/12/10 10:56:21;;;;;;;74.10;26.17;;;;;;;0.02;77.39;99180.44;4981941;28;20033;-65
2022/12/10 10:58:55;;;;;;;76.00;31.00;;;;;;;-0.01;77.77;99171.81;4981016;28;20041;-64
2022/12/10 11:01:20;;;;;;;59.23;26.00;;;;;;;-0.04;77.77;99168.44;5003272;28;20037;-66
2022/12/10 11:03:54;;;;;;;66.40;25.65;;;;;;;-0.04;77.88;99168.44;4970375;28;20288;-65
2022/12/10 11:06:19;;;;;;;77.50;30.65;;;;;;;-0.06;78.18;99171.09;5006993;28;20041;-65
2022/12/10 11:08:46;;;;;;;64.53;28.65;;;;;;;-0.02;78.33;99170.09;4975047;28;20052;-66
2022/12/10 11:11:31;;;;;;;76.00;27.00;;;;;;;0.07;78.03;99163.66;5008256;28;20052;-65
2022/12/10 11:14:23;;;;;;;75.47;29.17;;;;;;;0.15;77.59;99156.34;4991252;28;20056;-65
2022/12/10 11:16:48;;;;;;;70.53;21.98;;;;;;;0.17;77.00;99151.06;4974858;28;20045;-64
2022/12/10 11:19:22;;;;;;;62.88;25.05;;;;;;;0.09;76.86;99155.75;5008252;28;20051;-66
2022/12/10 11:21:48;;;;;;;73.50;27.33;;;;;;;-0.18;76.95;99145.34;5006010;28;20099;-68
2022/12/10 11:24:18;;;;;;;65.10;27.00;;;;;;;-0.08;77.29;99148.47;4987284;28;20294;-66
2022/12/10 11:27:14;;;;;;;63.28;26.25;;;;;;;-0.12;77.00;99141.66;5004827;28;20577;-66
2022/12/10 11:29:55;;;;;;;66.57;25.23;;;;;;;-0.18;77.72;99142.72;5006827;28;20076;-66
2022/12/10 11:32:46;;;;;;;67.38;25.80;;;;;;;-0.23;78.38;99149.06;5004422;28;20048;-66
2022/12/10 11:35:19;;;;;;;64.05;22.33;;;;;;;-0.20;78.30;99141.91;4978307;28;20050;-66
2022/12/10 11:37:58;;;;;;;66.87;22.83;;;;;;;-0.12;78.01;99144.28;4960497;28;20049;-66
2022/12/10 11:40:42;;;;;;;77.13;28.58;;;;;;;-0.21;77.98;99136.72;4997272;28;20045;-65